Time;durP1;ratioP1;P1;durP2;ratioP2;P2;SDS_P1;SDS_P2;PMS_P1;PMS_P2;Temp;Humidity;BMP_temperature;BMP_pressure;BME280_temperature;BME280_humidity;BME280_pressure;Samples;Min_cycle;Max_cycle;Signal;HPM_P1;HPM_P2
2022/05/09 00:02:14;;;;;;;10.45;8.27;;;;;;;17.19;52.36;94047.06;5014544;28;20112;-83
2022/05/09 00:04:39;;;;;;;11.30;8.68;;;;;;;17.18;52.12;94051.03;5015602;28;20037;-83
2022/05/09 00:07:05;;;;;;;10.35;8.35;;;;;;;17.18;52.44;94056.50;5030182;28;20546;-83
2022/05/09 00:09:30;;;;;;;10.30;9.07;;;;;;;17.15;52.23;94050.03;5014919;28;20085;-83
2022/05/09 00:11:56;;;;;;;10.60;8.55;;;;;;;17.17;52.18;94052.25;5011602;28;20055;-83
2022/05/09 00:14:21;;;;;;;9.63;8.07;;;;;;;17.16;52.66;94050.78;5027600;28;20084;-83
2022/05/09 00:16:47;;;;;;;8.85;7.20;;;;;;;17.16;52.38;94053.50;5027458;28;20040;-83
2022/05/09 00:19:17;;;;;;;10.45;8.23;;;;;;;17.15;52.12;94058.22;5030290;28;20037;-83
2022/05/09 00:21:43;;;;;;;9.55;7.97;;;;;;;17.14;51.99;94048.53;5024156;28;20041;-84
2022/05/09 00:24:09;;;;;;;10.05;8.18;;;;;;;17.15;52.52;94060.94;5011078;28;20137;-83
2022/05/09 00:26:35;;;;;;;9.80;7.85;;;;;;;17.16;52.60;94062.44;5011933;28;20025;-84
2022/05/09 00:29:02;;;;;;;9.93;7.60;;;;;;;17.16;52.13;94062.44;5011028;28;20025;-84
2022/05/09 00:31:28;;;;;;;9.52;7.85;;;;;;;17.14;52.53;94052.00;5010177;28;20076;-83
2022/05/09 00:33:53;;;;;;;9.63;8.13;;;;;;;17.14;52.20;94054.00;4994590;28;20025;-83
2022/05/09 00:36:18;;;;;;;8.95;7.97;;;;;;;17.16;52.19;94056.22;4997914;28;20038;-83
2022/05/09 00:38:44;;;;;;;9.32;7.38;;;;;;;17.13;52.48;94053.25;5010891;28;20435;-85
2022/05/09 00:43:55;;;;;;;9.32;7.53;;;;;;;17.13;52.27;94058.69;5037900;28;20036;-83
2022/05/09 00:46:23;;;;;;;9.02;7.40;;;;;;;17.14;52.32;94052.00;5030668;28;20415;-84
2022/05/09 00:48:49;;;;;;;9.68;7.82;;;;;;;17.14;52.54;94052.00;5030765;28;20575;-83
2022/05/09 00:51:18;;;;;;;8.82;7.05;;;;;;;17.14;52.13;94059.44;5013851;28;20280;-83
2022/05/09 00:53:44;;;;;;;8.57;7.20;;;;;;;17.14;52.20;94056.72;5031135;28;20091;-83
2022/05/09 00:56:12;;;;;;;8.35;7.07;;;;;;;17.13;52.39;94057.94;5013367;28;20041;-84
2022/05/09 00:58:40;;;;;;;8.85;7.45;;;;;;;17.13;51.91;94058.69;5030415;28;20029;-83
2022/05/09 01:01:06;;;;;;;8.82;7.13;;;;;;;17.12;52.48;94057.19;5030282;28;20087;-87
2022/05/09 01:03:37;;;;;;;8.95;7.90;;;;;;;17.13;52.25;94052.50;5030664;28;20377;-83
2022/05/09 01:06:03;;;;;;;8.80;7.60;;;;;;;17.13;52.06;94057.94;5029876;28;20090;-84
2022/05/09 01:08:28;;;;;;;8.75;7.05;;;;;;;17.13;52.25;94052.50;5013352;28;20506;-84
2022/05/09 01:10:54;;;;;;;8.43;7.30;;;;;;;17.12;52.41;94057.19;5026630;28;20022;-83
2022/05/09 01:13:20;;;;;;;8.02;6.47;;;;;;;17.13;52.60;94052.50;5009987;28;20034;-83
2022/05/09 01:15:47;;;;;;;9.25;7.20;;;;;;;17.12;52.21;94057.19;5010755;28;20105;-83
2022/05/09 01:18:14;;;;;;;9.35;7.25;;;;;;;17.13;52.19;94047.78;4990310;28;20038;-83
2022/05/09 01:20:39;;;;;;;8.43;6.90;;;;;;;17.13;52.13;94055.22;5036366;28;20037;-84
2022/05/09 01:23:07;;;;;;;8.93;6.75;;;;;;;17.13;52.48;94041.56;5010897;28;20098;-83
2022/05/09 01:25:33;;;;;;;7.32;6.53;;;;;;;17.12;51.96;94051.00;5027112;28;20035;-83
2022/05/09 01:27:59;;;;;;;9.57;6.65;;;;;;;17.11;52.33;94050.25;4993353;28;20061;-83
2022/05/09 01:30:37;;;;;;;8.18;6.32;;;;;;;17.11;52.03;94047.50;4993432;28;20046;-83
2022/05/09 01:33:28;;;;;;;7.88;6.70;;;;;;;17.13;52.29;94049.75;5027349;28;20175;-85
2022/05/09 01:36:14;;;;;;;7.65;6.65;;;;;;;17.11;52.36;94052.97;5042973;28;20439;-83
2022/05/09 01:38:43;;;;;;;7.78;6.28;;;;;;;17.10;52.05;94051.47;5042537;28;20037;-83
2022/05/09 01:41:09;;;;;;;7.65;6.43;;;;;;;17.12;51.92;94051.00;5009948;28;20038;-83
2022/05/09 01:43:42;;;;;;;8.02;6.63;;;;;;;17.13;52.33;94047.78;5025770;28;20033;-84
2022/05/09 01:46:13;;;;;;;6.72;6.05;;;;;;;17.10;52.08;94043.28;5025716;28;20463;-84
2022/05/09 01:51:22;;;;;;;7.05;6.15;;;;;;;17.11;52.00;94054.97;5026373;28;20075;-83
2022/05/09 01:53:50;;;;;;;6.80;6.10;;;;;;;17.10;52.37;94062.41;5027767;28;20041;-83
2022/05/09 01:56:17;;;;;;;7.40;6.30;;;;;;;17.09;52.23;94052.00;5026123;28;20484;-83
2022/05/09 01:58:42;;;;;;;7.57;6.05;;;;;;;17.12;51.90;94064.66;4993512;28;20048;-83
2022/05/09 02:01:08;;;;;;;8.18;6.32;;;;;;;17.10;51.95;94058.94;5025059;28;20037;-84
2022/05/09 02:03:33;;;;;;;7.90;5.90;;;;;;;17.08;51.98;94058.69;5026461;28;20095;-87
2022/05/09 02:06:00;;;;;;;7.38;6.13;;;;;;;17.09;52.00;94062.91;5009654;28;20136;-83
2022/05/09 02:08:25;;;;;;;6.95;5.75;;;;;;;17.09;52.05;94062.91;5008998;28;20103;-83
2022/05/09 02:10:51;;;;;;;6.60;5.47;;;;;;;17.09;52.05;94060.19;5009641;28;20041;-83
2022/05/09 02:13:16;;;;;;;7.22;6.03;;;;;;;17.08;51.79;94062.16;5025220;28;20037;-83
2022/05/09 02:15:41;;;;;;;6.68;5.97;;;;;;;17.11;52.16;94063.16;5042454;28;20661;-83
2022/05/09 02:18:07;;;;;;;8.40;6.43;;;;;;;17.09;52.04;94060.94;5026918;28;20045;-84
2022/05/09 02:20:35;;;;;;;7.80;5.95;;;;;;;17.08;52.15;94073.09;5042467;28;20034;-83
2022/05/09 02:23:01;;;;;;;6.20;5.38;;;;;;;17.10;52.34;94072.59;5027025;28;20025;-83
2022/05/09 02:25:26;;;;;;;6.68;5.70;;;;;;;17.10;52.17;94064.41;5025490;28;20029;-83
2022/05/09 02:27:53;;;;;;;7.95;5.65;;;;;;;17.09;52.28;94063.66;5009825;28;20034;-83
2022/05/09 02:30:18;;;;;;;7.38;6.20;;;;;;;17.07;52.15;94068.84;5009528;28;20042;-83
2022/05/09 02:32:44;;;;;;;8.18;6.10;;;;;;;17.08;52.21;94075.81;5009105;28;20034;-83
2022/05/09 02:35:10;;;;;;;6.60;5.40;;;;;;;17.07;52.30;94082.53;4992407;28;20496;-83
2022/05/09 02:37:35;;;;;;;7.30;5.88;;;;;;;17.08;52.18;94075.06;5009908;28;20400;-83
2022/05/09 02:40:01;;;;;;;7.40;5.88;;;;;;;17.08;52.15;94080.53;5009382;28;20077;-83
2022/05/09 02:42:26;;;;;;;6.20;5.60;;;;;;;17.08;52.08;94081.28;5008844;28;20057;-83
2022/05/09 02:44:54;;;;;;;6.95;5.72;;;;;;;17.09;51.93;94074.59;5009147;28;20404;-83
2022/05/09 02:47:20;;;;;;;7.15;5.90;;;;;;;17.08;52.13;94069.59;5008938;28;20558;-83
2022/05/09 02:49:46;;;;;;;6.38;5.43;;;;;;;17.08;51.89;94084.03;5009329;28;20084;-83
2022/05/09 02:52:12;;;;;;;5.82;5.20;;;;;;;17.07;51.79;94082.53;5009060;28;20038;-84
2022/05/09 02:54:37;;;;;;;5.60;5.10;;;;;;;17.08;52.08;94080.53;5009598;28;20476;-83
2022/05/09 02:57:03;;;;;;;6.32;5.28;;;;;;;17.07;52.19;94079.03;5021446;28;20033;-86
2022/05/09 02:59:28;;;;;;;6.88;5.70;;;;;;;17.07;52.56;94087.97;5031781;28;20049;-83
2022/05/09 03:01:54;;;;;;;6.45;5.28;;;;;;;17.07;51.84;94079.03;5032483;28;20087;-83
2022/05/09 03:07:03;;;;;;;6.32;5.45;;;;;;;17.06;52.02;94078.28;5049086;28;20147;-83
2022/05/09 03:09:30;;;;;;;8.90;5.45;;;;;;;17.06;52.07;94075.56;5048471;28;20152;-83
2022/05/09 03:11:56;;;;;;;5.57;5.07;;;;;;;17.07;52.12;94076.31;5021162;28;20559;-83
2022/05/09 03:14:21;;;;;;;6.75;5.82;;;;;;;17.06;51.76;94070.09;5028662;28;20052;-83
2022/05/09 03:16:47;;;;;;;6.22;5.63;;;;;;;17.08;51.92;94080.53;5012608;28;20037;-84
2022/05/09 03:19:12;;;;;;;5.30;4.72;;;;;;;17.08;51.92;94075.81;4995858;28;20048;-83
2022/05/09 03:21:38;;;;;;;5.82;5.05;;;;;;;17.08;52.00;94086.00;5028805;28;20037;-83
2022/05/09 03:24:04;;;;;;;5.95;5.18;;;;;;;17.07;52.11;94084.50;5012016;28;20089;-84
2022/05/09 03:26:29;;;;;;;5.78;5.18;;;;;;;17.05;52.05;94082.25;5012400;28;20037;-83
2022/05/09 03:28:55;;;;;;;6.90;5.80;;;;;;;17.06;52.04;94086.47;5012222;28;20495;-83
2022/05/09 03:31:20;;;;;;;6.00;5.07;;;;;;;17.04;51.91;94086.22;5011906;28;20048;-83
2022/05/09 03:33:45;;;;;;;7.63;5.72;;;;;;;17.06;51.92;94083.00;5012330;28;20041;-83
2022/05/09 03:36:11;;;;;;;7.00;5.28;;;;;;;17.06;51.88;94083.00;4999054;28;20045;-83
2022/05/09 03:38:38;;;;;;;5.65;4.82;;;;;;;17.05;52.08;94090.44;5029002;28;20041;-83
2022/05/09 03:41:04;;;;;;;12.50;5.80;;;;;;;17.06;51.80;94085.72;5028619;28;20124;-83
2022/05/09 03:43:29;;;;;;;5.63;4.95;;;;;;;17.07;51.91;94087.97;5045255;28;20585;-82
2022/05/09 03:45:55;;;;;;;7.28;5.38;;;;;;;17.06;51.86;94083.00;5027895;28;20037;-83
2022/05/09 03:48:20;;;;;;;5.40;4.90;;;;;;;17.04;51.95;94078.03;5011511;28;20033;-85
2022/05/09 03:50:46;;;;;;;5.28;4.78;;;;;;;17.09;51.89;94090.22;5012438;28;20029;-84
2022/05/09 03:53:11;;;;;;;6.38;5.57;;;;;;;17.07;51.82;94085.25;4995595;28;20513;-83
2022/05/09 03:55:36;;;;;;;5.65;4.75;;;;;;;17.08;51.64;94081.28;5013283;28;20523;-84
2022/05/09 03:58:03;;;;;;;5.63;4.95;;;;;;;17.10;52.10;94083.53;5028242;28;20524;-85
2022/05/09 04:00:29;;;;;;;4.88;4.22;;;;;;;17.08;51.75;94088.72;5011495;28;20064;-82
2022/05/09 04:02:55;;;;;;;6.45;5.10;;;;;;;17.08;52.05;94091.47;5027919;28;20598;-83
2022/05/09 04:05:20;;;;;;;5.70;5.05;;;;;;;17.08;51.64;94088.72;5011268;28;20496;-84
2022/05/09 04:07:50;;;;;;;9.15;5.25;;;;;;;17.06;51.57;94093.94;5027667;28;20516;-91
2022/05/09 04:10:18;;;;;;;8.43;5.40;;;;;;;17.10;51.42;94099.94;5009874;28;20041;-83
2022/05/09 04:12:43;;;;;;;9.10;6.05;;;;;;;17.03;51.88;94094.91;5019598;28;20416;-92
2022/05/09 04:17:53;;;;;;;39.60;13.02;;;;;;;16.91;52.71;94098.75;5027988;28;20099;-84
2022/05/09 04:20:19;;;;;;;43.47;12.35;;;;;;;16.90;52.60;94095.28;5010592;28;20033;-84
2022/05/09 04:22:44;;;;;;;26.88;10.13;;;;;;;16.94;52.54;94095.06;5009018;28;20041;-84
2022/05/09 04:25:12;;;;;;;22.58;10.18;;;;;;;16.93;52.24;94096.28;5010176;28;20038;-84
2022/05/09 04:27:38;;;;;;;33.60;13.00;;;;;;;16.99;51.72;94110.75;5011430;28;20115;-85
2022/05/09 04:30:07;;;;;;;36.30;11.55;;;;;;;16.97;51.92;94089.38;5007693;28;20046;-88
2022/05/09 04:32:32;;;;;;;39.50;11.73;;;;;;;17.02;51.77;94098.84;5037082;28;20447;-85
2022/05/09 04:34:58;;;;;;;54.22;17.90;;;;;;;17.09;52.28;94101.16;5019627;28;20042;-85
2022/05/09 04:37:24;;;;;;;124.65;67.60;;;;;;;17.16;52.07;94097.97;5009960;28;20077;-82
2022/05/09 04:39:50;;;;;;;90.97;41.00;;;;;;;17.18;51.96;94105.69;5036852;28;20083;-85
2022/05/09 04:42:15;;;;;;;105.53;43.13;;;;;;;17.22;51.58;94098.75;5026748;28;20037;-89
2022/05/09 04:44:41;;;;;;;31.48;15.90;;;;;;;17.28;51.04;94107.00;5010462;28;20041;-88
2022/05/09 04:47:07;;;;;;;36.65;14.80;;;;;;;17.28;51.08;94104.28;5022643;28;20042;-87
2022/05/09 04:49:35;;;;;;;48.05;14.63;;;;;;;17.26;51.02;94112.19;5028492;28;20049;-86
2022/05/09 04:52:02;;;;;;;48.15;17.10;;;;;;;17.20;51.15;94117.63;5023455;28;20044;-88
2022/05/09 04:54:28;;;;;;;33.10;13.30;;;;;;;17.24;50.63;94120.88;5002758;28;20054;-87
2022/05/09 04:56:54;;;;;;;29.50;11.30;;;;;;;17.14;51.63;94120.31;4980043;28;20649;-86
2022/05/09 04:59:19;;;;;;;33.03;12.32;;;;;;;17.08;52.28;94116.03;4991722;28;20508;-87
2022/05/09 05:01:45;;;;;;;15.82;9.45;;;;;;;17.03;52.25;94112.03;4974066;28;20081;-88
2022/05/09 05:04:10;;;;;;;29.98;12.13;;;;;;;17.01;52.34;94128.16;5011125;28;20122;-84
2022/05/09 05:06:37;;;;;;;29.38;14.07;;;;;;;16.96;52.79;94123.38;4976427;28;20038;-84
2022/05/09 05:09:02;;;;;;;26.20;14.10;;;;;;;16.88;52.57;94122.34;4973344;28;20077;-86
2022/05/09 05:11:28;;;;;;;37.42;17.30;;;;;;;16.89;52.66;94126.53;5005057;28;20080;-86
2022/05/09 05:13:53;;;;;;;29.35;16.90;;;;;;;16.89;53.33;94126.53;4989681;28;20053;-85
2022/05/09 05:16:59;;;;;;;42.55;18.25;;;;;;;16.86;53.29;94132.25;4989310;28;20049;-85
2022/05/09 05:19:04;;;;;;;40.25;17.55;;;;;;;16.82;53.30;94129.72;4979409;28;20504;-85
2022/05/09 05:21:31;;;;;;;36.33;17.17;;;;;;;16.75;53.72;94139.09;4971837;28;20046;-89
2022/05/09 05:23:56;;;;;;;38.97;17.50;;;;;;;16.72;53.72;94133.84;4979545;28;20117;-86
2022/05/09 05:26:22;;;;;;;70.28;24.73;;;;;;;16.71;53.96;94135.81;5008688;28;20045;-84
2022/05/09 05:28:47;;;;;;;37.53;14.90;;;;;;;16.68;53.78;94139.50;5013873;28;20029;-85
2022/05/09 05:31:18;;;;;;;40.95;16.80;;;;;;;16.77;53.74;94139.38;5005952;28;20033;-84
2022/05/09 05:33:44;;;;;;;;;;;;;;;16.79;53.62;94147.06;5049348;28;20112;-84
2022/05/09 05:36:09;;;;;;;83.88;25.25;;;;;;;16.71;53.49;94144.00;5027461;28;20012;-86
2022/05/09 05:38:35;;;;;;;104.63;29.15;;;;;;;16.67;54.33;94148.94;5030185;28;20022;-85
2022/05/09 05:41:00;;;;;;;450.85;56.28;;;;;;;16.67;54.10;94143.47;5027126;28;20030;-86
2022/05/09 05:43:26;;;;;;;817.22;100.97;;;;;;;16.71;54.03;94154.19;5039352;28;20043;-85
2022/05/09 05:45:55;;;;;;;612.05;76.43;;;;;;;16.78;53.84;94143.59;5027919;28;20040;-86
2022/05/09 05:48:21;;;;;;;238.68;40.55;;;;;;;16.75;54.24;94146.53;5011319;28;20041;-85
2022/05/09 05:50:47;;;;;;;185.70;38.38;;;;;;;16.74;54.02;94153.97;5009767;28;20041;-86
2022/05/09 05:53:12;;;;;;;133.02;32.75;;;;;;;16.74;53.80;94153.22;5003405;28;20029;-86
2022/05/09 05:55:38;;;;;;;97.68;25.90;;;;;;;16.76;53.74;94148.03;5023755;28;20037;-86
2022/05/09 05:58:03;;;;;;;94.32;29.10;;;;;;;16.75;53.94;94149.25;5006383;28;20045;-85
2022/05/09 06:00:29;;;;;;;84.07;24.90;;;;;;;16.71;54.32;94154.94;5006926;28;20065;-88
2022/05/09 06:02:54;;;;;;;77.18;28.95;;;;;;;16.70;54.52;94158.91;5006584;28;20870;-85
2022/05/09 06:05:20;;;;;;;73.80;29.83;;;;;;;16.73;53.81;94152.47;5034369;28;20041;-87
2022/05/09 06:07:47;;;;;;;67.47;26.88;;;;;;;16.71;54.29;94152.19;5020137;28;20398;-88
2022/05/09 06:10:13;;;;;;;67.55;26.20;;;;;;;16.74;54.27;94156.69;5015989;28;20033;-86
2022/05/09 06:12:39;;;;;;;75.90;28.15;;;;;;;16.77;54.06;94158.47;5037211;28;20036;-88
2022/05/09 06:17:48;;;;;;;64.90;27.50;;;;;;;16.87;53.85;94145.41;5011896;28;20087;-86
2022/05/09 06:20:14;;;;;;;67.32;30.77;;;;;;;16.91;53.59;94156.09;5011599;28;20037;-86
2022/05/09 06:22:40;;;;;;;70.65;31.63;;;;;;;16.96;53.27;94158.16;5037345;28;20045;-90
2022/05/09 06:25:07;;;;;;;68.22;33.00;;;;;;;16.96;53.04;94156.16;5015853;28;20062;-88
2022/05/09 06:27:33;;;;;;;102.00;39.17;;;;;;;17.04;53.42;94159.97;5010068;28;20033;-90
2022/05/09 06:30:02;;;;;;;82.57;37.20;;;;;;;17.08;52.99;94165.22;5008457;28;20511;-85
2022/05/09 06:32:28;;;;;;;75.88;38.75;;;;;;;17.05;52.80;94155.25;5009312;28;20057;-87
2022/05/09 06:34:53;;;;;;;71.53;30.75;;;;;;;17.08;52.75;94165.22;5026349;28;20037;-89
2022/05/09 06:37:19;;;;;;;80.95;33.08;;;;;;;17.07;53.09;94164.47;5027395;28;20043;-85
2022/05/09 06:39:44;;;;;;;62.70;30.35;;;;;;;17.12;53.11;94157.53;5013977;28;20026;-86
2022/05/09 06:42:10;;;;;;;57.75;25.52;;;;;;;17.16;53.00;94162.78;5010288;28;20047;-85
2022/05/09 06:44:36;;;;;;;61.67;25.25;;;;;;;17.16;52.68;94166.25;5029361;28;20380;-86
2022/05/09 06:47:03;;;;;;;67.97;29.35;;;;;;;17.12;52.56;94168.47;5013115;28;20064;-83
2022/05/09 06:49:30;;;;;;;71.07;35.92;;;;;;;17.12;52.50;94158.28;5014086;28;20445;-88
2022/05/09 06:51:55;;;;;;;63.90;30.67;;;;;;;17.19;53.07;94170.00;5006355;28;20127;-86
2022/05/09 06:54:22;;;;;;;98.35;42.83;;;;;;;17.18;52.57;94169.25;5024665;28;20067;-85
2022/05/09 06:56:48;;;;;;;81.78;38.92;;;;;;;17.18;52.58;94172.00;5004954;28;20096;-81
2022/05/09 06:59:13;;;;;;;102.95;42.47;;;;;;;17.21;52.61;94168.31;5016249;28;20060;-83
2022/05/09 07:01:39;;;;;;;82.32;39.15;;;;;;;17.21;52.84;94173.00;5020236;28;20045;-85
2022/05/09 07:04:04;;;;;;;88.55;45.70;;;;;;;17.25;52.60;94182.50;5011696;28;20496;-80
2022/05/09 07:06:30;;;;;;;97.30;53.67;;;;;;;17.26;52.50;94172.31;5017460;28;20037;-84
2022/05/09 07:08:55;;;;;;;93.72;49.38;;;;;;;17.24;52.61;94175.53;5030808;28;20053;-82
2022/05/09 07:11:21;;;;;;;95.25;56.30;;;;;;;17.29;52.28;94179.53;5012707;28;20049;-83
2022/05/09 07:13:47;;;;;;;97.90;52.55;;;;;;;17.28;52.33;94175.31;5008644;28;20036;-83
2022/05/09 07:16:13;;;;;;;131.05;58.28;;;;;;;17.29;52.22;94174.09;5015201;28;20041;-87
2022/05/09 07:18:38;;;;;;;116.70;57.42;;;;;;;17.32;52.38;94176.56;5031507;28;20056;-84
2022/05/09 07:21:05;;;;;;;118.82;57.83;;;;;;;17.33;52.59;94175.34;5020614;28;20037;-85
2022/05/09 07:23:30;;;;;;;124.22;57.95;;;;;;;17.37;51.93;94183.31;5028767;28;20045;-84
2022/05/09 07:25:56;;;;;;;125.60;66.00;;;;;;;17.33;52.43;94185.53;5012307;28;20034;-86
2022/05/09 07:28:21;;;;;;;141.88;73.15;;;;;;;17.37;51.93;94181.34;5024030;28;20037;-86
2022/05/09 07:30:48;;;;;;;132.80;69.47;;;;;;;17.38;52.09;94179.34;5027978;28;20117;-87
2022/05/09 07:33:16;;;;;;;142.52;70.32;;;;;;;17.41;51.96;94187.34;5013185;28;20045;-86
2022/05/09 07:35:42;;;;;;;138.48;71.15;;;;;;;17.43;51.88;94181.38;4990518;28;20091;-85
2022/05/09 07:38:08;;;;;;;123.20;71.95;;;;;;;17.42;52.27;94188.84;5028103;28;20131;-85
2022/05/09 07:40:34;;;;;;;135.38;67.70;;;;;;;17.44;52.47;94185.63;5002537;28;20404;-86
2022/05/09 07:42:59;;;;;;;131.25;68.50;;;;;;;17.47;52.05;94179.94;5048082;28;20037;-89
2022/05/09 07:45:25;;;;;;;126.57;69.20;;;;;;;17.51;52.06;94178.97;5009810;28;20080;-90
2022/05/09 07:47:50;;;;;;;145.82;75.03;;;;;;;17.47;51.69;94181.91;5011223;28;20033;-90
2022/05/09 07:50:16;;;;;;;134.65;71.65;;;;;;;17.49;51.69;94182.19;4986309;28;20815;-84
2022/05/09 07:52:42;;;;;;;123.35;71.68;;;;;;;17.51;52.09;94195.38;4969716;28;20073;-83
2022/05/09 07:55:11;;;;;;;124.47;71.50;;;;;;;17.52;51.93;94189.41;5017192;28;20073;-87
2022/05/09 07:57:36;;;;;;;123.93;73.03;;;;;;;17.56;51.98;94183.72;4991797;28;20037;-87
2022/05/09 08:00:02;;;;;;;148.02;77.53;;;;;;;17.51;52.01;94189.91;4985381;28;20586;-90
2022/05/09 08:02:28;;;;;;;147.35;83.50;;;;;;;17.53;51.79;94181.97;5001614;28;20076;-87
2022/05/09 08:04:53;;;;;;;209.48;89.28;;;;;;;17.55;51.52;94190.41;4970098;28;20041;-85
2022/05/09 08:07:19;;;;;;;485.13;102.93;;;;;;;17.57;51.90;94188.69;5009424;28;20051;-87
2022/05/09 08:09:45;;;;;;;301.85;88.32;;;;;;;17.55;51.71;94191.16;4991799;28;20052;-84
2022/05/09 08:12:11;;;;;;;190.13;81.15;;;;;;;17.55;51.61;94188.41;4986254;28;20049;-85
2022/05/09 08:14:36;;;;;;;153.25;78.22;;;;;;;17.53;52.47;94188.19;4990523;28;20049;-82
2022/05/09 08:17:02;;;;;;;184.63;81.85;;;;;;;17.51;52.73;94176.97;4985787;28;20548;-85
2022/05/09 08:19:29;;;;;;;177.43;68.10;;;;;;;17.57;52.53;94180.50;5017755;28;20034;-82
2022/05/09 08:21:55;;;;;;;182.80;66.28;;;;;;;17.59;52.82;94180.00;5012285;28;20037;-82
2022/05/09 08:24:21;;;;;;;157.18;70.45;;;;;;;17.56;52.72;94181.72;5004999;28;20033;-83
2022/05/09 08:26:47;;;;;;;174.50;63.85;;;;;;;17.60;52.67;94189.69;5008119;28;20053;-82
2022/05/09 08:29:13;;;;;;;142.02;64.28;;;;;;;17.60;52.47;94178.78;5045848;28;20579;-82
2022/05/09 08:31:38;;;;;;;125.20;56.58;;;;;;;17.62;52.49;94184.50;5028699;28;20129;-83
2022/05/09 08:34:04;;;;;;;126.80;59.08;;;;;;;17.63;52.21;94180.53;5026703;28;20055;-83
2022/05/09 08:39:13;;;;;;;146.82;66.47;;;;;;;17.63;52.60;94186.75;5029655;28;20064;-90
2022/05/09 08:41:56;;;;;;;155.25;66.32;;;;;;;17.63;52.13;94184.00;5029951;28;20034;-83
2022/05/09 08:44:51;;;;;;;156.63;67.32;;;;;;;17.63;51.98;94183.25;5029225;28;20049;-88
2022/05/09 08:47:38;;;;;;;146.32;65.90;;;;;;;17.64;52.20;94192.97;5019975;28;20037;-82
2022/05/09 08:50:28;;;;;;;142.50;66.32;;;;;;;17.65;51.97;94187.03;5028365;28;20114;-84
2022/05/09 08:52:56;;;;;;;136.15;67.47;;;;;;;17.65;52.21;94180.81;5020844;28;20188;-83
2022/05/09 08:55:36;;;;;;;122.97;64.43;;;;;;;17.65;52.14;94186.28;5025055;28;20496;-85
2022/05/09 08:58:13;;;;;;;117.18;59.20;;;;;;;17.63;52.46;94197.69;5023594;28;20057;-84
2022/05/09 09:00:39;;;;;;;122.75;59.83;;;;;;;17.66;52.12;94187.78;5029512;28;20038;-83
2022/05/09 09:03:28;;;;;;;106.18;59.50;;;;;;;17.64;52.39;94190.25;5027049;28;20079;-85
2022/05/09 09:05:55;;;;;;;110.00;58.58;;;;;;;17.69;52.17;94198.50;5002806;28;20041;-84
2022/05/09 09:09:02;;;;;;;113.25;64.25;;;;;;;17.70;52.37;94204.72;5031061;28;20037;-84
2022/05/09 09:11:45;;;;;;;114.93;62.35;;;;;;;17.75;52.10;94195.81;5023137;28;20068;-85
2022/05/09 09:14:45;;;;;;;116.35;62.25;;;;;;;17.76;51.83;94195.31;5019281;28;20038;-86
2022/05/09 09:17:24;;;;;;;108.03;62.70;;;;;;;17.78;51.65;94195.56;5013546;28;20104;-83
2022/05/09 09:20:14;;;;;;;128.80;61.55;;;;;;;17.81;52.24;94199.31;5027459;28;20099;-82
2022/05/09 09:23:14;;;;;;;114.67;60.03;;;;;;;17.82;52.17;94187.16;5026287;28;20033;-85
2022/05/09 09:25:45;;;;;;;102.43;59.45;;;;;;;17.82;51.74;94198.09;5037065;28;20060;-83
2022/05/09 09:28:14;;;;;;;113.97;59.85;;;;;;;17.83;52.16;94196.09;5029825;28;20132;-81
2022/05/09 09:30:40;;;;;;;100.20;57.15;;;;;;;17.80;52.41;94200.56;5030844;28;20038;-82
2022/05/09 09:33:09;;;;;;;116.20;61.03;;;;;;;17.77;52.03;94193.31;5011244;28;20065;-82
2022/05/09 09:36:00;;;;;;;104.72;55.67;;;;;;;17.77;52.25;94196.06;5020990;28;20034;-84
2022/05/09 09:38:42;;;;;;;97.78;44.33;;;;;;;17.79;52.47;94193.59;5027519;28;20680;-82
2022/05/09 09:41:20;;;;;;;102.03;52.42;;;;;;;17.75;52.53;94187.63;5019167;28;20108;-83
2022/05/09 09:43:47;;;;;;;101.03;48.53;;;;;;;17.75;52.52;94191.06;5009826;28;20033;-80
2022/05/09 09:46:12;;;;;;;91.70;50.75;;;;;;;17.79;52.27;94193.59;5025298;28;20075;-80
2022/05/09 09:48:39;;;;;;;80.20;49.80;;;;;;;17.79;52.27;94197.06;5025900;28;20045;-80
2022/05/09 09:51:06;;;;;;;104.63;54.22;;;;;;;17.80;52.34;94190.38;5022405;28;20588;-86
2022/05/09 09:53:34;;;;;;;135.98;61.33;;;;;;;17.78;52.34;94190.09;5013386;28;20194;-81
2022/05/09 09:56:11;;;;;;;132.75;62.42;;;;;;;17.77;52.31;94188.59;5033175;28;20082;-81
2022/05/09 09:58:40;;;;;;;118.72;61.70;;;;;;;17.80;52.45;94189.63;5031714;28;20069;-83
2022/05/09 10:01:11;;;;;;;114.40;59.65;;;;;;;17.81;52.46;94194.59;5010140;28;20797;-81
2022/05/09 10:03:41;;;;;;;111.45;58.13;;;;;;;17.81;52.65;94183.66;5023237;28;20210;-81
2022/05/09 10:06:15;;;;;;;148.05;60.97;;;;;;;17.75;52.50;94187.63;5025417;28;20515;-85
2022/05/09 10:08:40;;;;;;;100.55;47.95;;;;;;;17.76;52.79;94191.81;5012143;28;20026;-81
2022/05/09 10:11:08;;;;;;;103.30;51.88;;;;;;;17.76;52.80;94194.56;5013182;28;20040;-81
2022/05/09 10:13:37;;;;;;;105.53;49.50;;;;;;;17.77;52.45;94201.53;5012702;28;20613;-80
2022/05/09 10:16:09;;;;;;;87.63;45.97;;;;;;;17.79;52.74;94188.88;4996037;28;20040;-85
2022/05/09 10:18:35;;;;;;;86.47;45.95;;;;;;;17.78;52.72;94200.28;5031848;28;20107;-81
2022/05/09 10:21:10;;;;;;;87.45;42.75;;;;;;;17.79;52.49;94191.59;5024661;28;20762;-84
2022/05/09 10:26:24;;;;;;;78.97;43.60;;;;;;;17.78;52.23;94206.50;5031484;28;20095;-82
2022/05/09 10:28:55;;;;;;;73.57;40.05;;;;;;;17.75;52.19;94191.06;5027909;28;20044;-81
2022/05/09 10:31:35;;;;;;;90.57;41.92;;;;;;;17.78;52.39;94200.28;5011739;28;20089;-83
2022/05/09 10:34:06;;;;;;;78.03;40.60;;;;;;;17.79;52.58;94190.84;5006179;28;20041;-81
2022/05/09 10:36:37;;;;;;;73.28;41.15;;;;;;;17.78;52.69;94190.09;5037436;28;20040;-82
2022/05/09 10:39:14;;;;;;;68.43;41.15;;;;;;;17.77;52.46;94194.06;5048433;28;20076;-82
2022/05/09 10:41:40;;;;;;;77.68;46.13;;;;;;;17.77;52.97;94185.88;5031357;28;20029;-81
2022/05/09 10:44:44;;;;;;;78.65;44.08;;;;;;;17.78;52.30;94186.63;5049595;28;20033;-82
2022/05/09 10:47:26;;;;;;;77.22;39.47;;;;;;;17.80;52.47;94171.22;5031117;28;20129;-80
2022/05/09 10:50:09;;;;;;;61.10;36.78;;;;;;;17.79;52.89;94186.13;5027148;28;20041;-80
2022/05/09 10:52:48;;;;;;;65.60;36.70;;;;;;;17.77;52.95;94187.84;5012094;28;20412;-83
2022/05/09 10:55:14;;;;;;;64.93;37.80;;;;;;;17.78;52.84;94181.91;5043401;28;20045;-83
2022/05/09 10:57:41;;;;;;;61.92;35.58;;;;;;;17.81;52.36;94191.88;5033870;28;20121;-83
2022/05/09 11:00:10;;;;;;;63.85;37.17;;;;;;;17.82;52.42;94181.69;5030987;28;20041;-83
2022/05/09 11:02:40;;;;;;;66.15;38.92;;;;;;;17.84;52.51;94181.94;5019110;28;20128;-88
2022/05/09 11:05:06;;;;;;;77.40;41.97;;;;;;;17.84;52.72;94181.94;5009537;28;20073;-84
2022/05/09 11:07:40;;;;;;;89.00;45.40;;;;;;;17.80;52.80;94182.16;5016481;28;20049;-83
2022/05/09 11:10:38;;;;;;;119.88;43.72;;;;;;;17.81;52.41;94177.44;5048841;28;20792;-86
2022/05/09 11:13:24;;;;;;;97.75;45.72;;;;;;;17.82;52.59;94170.75;5041887;28;20041;-83
2022/05/09 11:15:56;;;;;;;102.70;44.17;;;;;;;17.80;53.16;94156.81;5046623;28;20050;-82
2022/05/09 11:18:40;;;;;;;119.50;47.85;;;;;;;17.81;52.42;94153.56;5022331;28;20074;-84
2022/05/09 11:21:22;;;;;;;111.95;50.95;;;;;;;17.80;52.57;94143.88;5026208;28;20041;-82
2022/05/09 11:23:56;;;;;;;130.18;54.85;;;;;;;17.80;52.79;94145.84;5026217;28;20048;-83
2022/05/09 11:26:46;;;;;;;152.88;59.85;;;;;;;17.80;52.77;94141.13;5026712;28;20859;-84
2022/05/09 11:29:36;;;;;;;105.13;49.28;;;;;;;17.83;52.52;94149.59;5042393;28;20128;-84
2022/05/09 11:32:28;;;;;;;86.90;47.60;;;;;;;17.77;52.88;94144.84;5027619;28;20072;-86
2022/05/09 11:35:21;;;;;;;102.63;42.42;;;;;;;17.73;53.14;94151.81;5032423;28;20038;-84
2022/05/09 11:38:03;;;;;;;113.90;48.58;;;;;;;17.75;53.40;94150.06;5045288;28;20045;-82
2022/05/09 11:40:44;;;;;;;125.38;51.80;;;;;;;17.76;53.43;94151.56;5044504;28;20616;-84
2022/05/09 11:43:37;;;;;;;108.80;55.08;;;;;;;17.77;53.52;94144.84;5028467;28;20046;-85
2022/05/09 11:46:14;;;;;;;120.95;54.35;;;;;;;17.77;53.29;94141.38;4984480;28;20042;-86
2022/05/09 11:48:58;;;;;;;117.95;54.20;;;;;;;17.80;53.71;94143.13;5019162;28;20045;-84